sensor_id;sensor_type;location;lat;lon;timestamp;P1;durP1;ratioP1;P2;durP2;ratioP2
36547;SDS011;22551;52.206;4.856;2023-06-26T00:07:59;5.47;;;4.00;;
36547;SDS011;22551;52.206;4.856;2023-06-26T00:13:03;6.55;;;5.35;;
36547;SDS011;22551;52.206;4.856;2023-06-26T00:18:05;4.72;;;4.03;;
36547;SDS011;22551;52.206;4.856;2023-06-26T00:23:07;8.48;;;4.15;;
36547;SDS011;22551;52.206;4.856;2023-06-26T00:28:11;6.85;;;4.75;;
36547;SDS011;22551;52.206;4.856;2023-06-26T00:38:16;8.85;;;5.47;;
36547;SDS011;22551;52.206;4.856;2023-06-26T00:43:20;7.00;;;5.28;;
36547;SDS011;22551;52.206;4.856;2023-06-26T00:48:23;11.73;;;6.90;;
36547;SDS011;22551;52.206;4.856;2023-06-26T00:53:25;7.97;;;5.53;;
36547;SDS011;22551;52.206;4.856;2023-06-26T00:58:29;7.28;;;4.80;;
36547;SDS011;22551;52.206;4.856;2023-06-26T01:03:31;9.68;;;3.85;;
36547;SDS011;22551;52.206;4.856;2023-06-26T01:08:33;6.45;;;3.70;;
36547;SDS011;22551;52.206;4.856;2023-06-26T01:13:37;5.38;;;3.80;;
36547;SDS011;22551;52.206;4.856;2023-06-26T01:18:41;5.32;;;3.42;;
36547;SDS011;22551;52.206;4.856;2023-06-26T01:23:48;5.88;;;3.65;;
36547;SDS011;22551;52.206;4.856;2023-06-26T01:29:02;8.20;;;3.20;;
36547;SDS011;22551;52.206;4.856;2023-06-26T01:34:08;6.32;;;2.85;;
36547;SDS011;22551;52.206;4.856;2023-06-26T01:39:10;7.38;;;3.15;;
36547;SDS011;22551;52.206;4.856;2023-06-26T01:44:20;8.20;;;3.33;;
36547;SDS011;22551;52.206;4.856;2023-06-26T01:49:31;5.90;;;2.87;;
36547;SDS011;22551;52.206;4.856;2023-06-26T01:54:45;8.40;;;3.78;;
36547;SDS011;22551;52.206;4.856;2023-06-26T01:59:57;11.65;;;3.35;;
36547;SDS011;22551;52.206;4.856;2023-06-26T02:05:00;9.65;;;3.67;;
36547;SDS011;22551;52.206;4.856;2023-06-26T02:10:04;11.15;;;3.42;;
36547;SDS011;22551;52.206;4.856;2023-06-26T02:15:09;12.32;;;3.20;;
36547;SDS011;22551;52.206;4.856;2023-06-26T02:20:12;11.65;;;3.90;;
36547;SDS011;22551;52.206;4.856;2023-06-26T02:25:17;14.15;;;4.03;;
36547;SDS011;22551;52.206;4.856;2023-06-26T02:30:21;9.52;;;3.92;;
36547;SDS011;22551;52.206;4.856;2023-06-26T02:35:24;14.35;;;4.25;;
36547;SDS011;22551;52.206;4.856;2023-06-26T02:40:26;10.82;;;3.70;;
36547;SDS011;22551;52.206;4.856;2023-06-26T02:45:30;13.98;;;4.38;;
36547;SDS011;22551;52.206;4.856;2023-06-26T02:50:32;11.02;;;4.05;;
36547;SDS011;22551;52.206;4.856;2023-06-26T02:55:34;12.45;;;4.28;;
36547;SDS011;22551;52.206;4.856;2023-06-26T03:00:38;11.30;;;4.07;;
36547;SDS011;22551;52.206;4.856;2023-06-26T03:05:41;15.98;;;4.80;;
36547;SDS011;22551;52.206;4.856;2023-06-26T03:10:43;16.77;;;4.57;;
36547;SDS011;22551;52.206;4.856;2023-06-26T03:15:47;14.20;;;4.30;;
36547;SDS011;22551;52.206;4.856;2023-06-26T03:20:49;13.23;;;4.68;;
36547;SDS011;22551;52.206;4.856;2023-06-26T03:25:54;18.52;;;4.07;;
36547;SDS011;22551;52.206;4.856;2023-06-26T03:30:58;18.23;;;5.10;;
36547;SDS011;22551;52.206;4.856;2023-06-26T03:36:00;15.30;;;4.07;;
36547;SDS011;22551;52.206;4.856;2023-06-26T03:41:02;14.40;;;4.47;;
36547;SDS011;22551;52.206;4.856;2023-06-26T03:46:06;14.68;;;4.53;;
36547;SDS011;22551;52.206;4.856;2023-06-26T03:51:09;17.15;;;3.65;;
36547;SDS011;22551;52.206;4.856;2023-06-26T03:56:11;12.00;;;3.92;;
36547;SDS011;22551;52.206;4.856;2023-06-26T04:01:15;7.97;;;3.05;;
36547;SDS011;22551;52.206;4.856;2023-06-26T04:06:20;10.05;;;3.05;;
36547;SDS011;22551;52.206;4.856;2023-06-26T04:11:31;15.65;;;3.03;;
36547;SDS011;22551;52.206;4.856;2023-06-26T04:16:35;14.30;;;3.47;;
36547;SDS011;22551;52.206;4.856;2023-06-26T04:21:37;8.27;;;2.70;;
36547;SDS011;22551;52.206;4.856;2023-06-26T04:26:39;11.73;;;2.92;;
36547;SDS011;22551;52.206;4.856;2023-06-26T04:31:43;5.80;;;2.30;;
36547;SDS011;22551;52.206;4.856;2023-06-26T04:36:47;3.50;;;1.77;;
36547;SDS011;22551;52.206;4.856;2023-06-26T04:41:51;8.80;;;2.23;;
36547;SDS011;22551;52.206;4.856;2023-06-26T04:46:55;10.13;;;2.50;;
36547;SDS011;22551;52.206;4.856;2023-06-26T04:51:57;5.30;;;2.40;;
36547;SDS011;22551;52.206;4.856;2023-06-26T04:57:00;7.53;;;2.63;;
36547;SDS011;22551;52.206;4.856;2023-06-26T05:02:05;6.97;;;2.35;;
36547;SDS011;22551;52.206;4.856;2023-06-26T05:12:10;8.07;;;2.33;;
36547;SDS011;22551;52.206;4.856;2023-06-26T05:17:14;6.75;;;2.05;;
36547;SDS011;22551;52.206;4.856;2023-06-26T05:22:17;7.05;;;2.28;;
36547;SDS011;22551;52.206;4.856;2023-06-26T05:27:21;9.38;;;2.15;;
36547;SDS011;22551;52.206;4.856;2023-06-26T05:32:25;4.53;;;1.88;;
36547;SDS011;22551;52.206;4.856;2023-06-26T05:37:28;8.45;;;2.00;;
36547;SDS011;22551;52.206;4.856;2023-06-26T05:42:33;2.80;;;1.58;;
36547;SDS011;22551;52.206;4.856;2023-06-26T05:47:39;3.83;;;1.90;;
36547;SDS011;22551;52.206;4.856;2023-06-26T05:52:46;2.88;;;1.50;;
36547;SDS011;22551;52.206;4.856;2023-06-26T05:57:50;2.40;;;1.73;;
36547;SDS011;22551;52.206;4.856;2023-06-26T06:02:54;10.35;;;2.65;;
36547;SDS011;22551;52.206;4.856;2023-06-26T06:12:59;5.70;;;1.65;;
36547;SDS011;22551;52.206;4.856;2023-06-26T06:18:04;9.95;;;2.00;;
36547;SDS011;22551;52.206;4.856;2023-06-26T06:23:06;4.00;;;1.60;;
36547;SDS011;22551;52.206;4.856;2023-06-26T06:28:10;6.32;;;1.60;;
36547;SDS011;22551;52.206;4.856;2023-06-26T06:33:18;6.43;;;1.33;;
36547;SDS011;22551;52.206;4.856;2023-06-26T06:38:20;5.70;;;1.48;;
36547;SDS011;22551;52.206;4.856;2023-06-26T06:43:22;4.63;;;1.60;;
36547;SDS011;22551;52.206;4.856;2023-06-26T06:48:26;5.40;;;1.58;;
36547;SDS011;22551;52.206;4.856;2023-06-26T06:53:30;7.00;;;1.40;;
36547;SDS011;22551;52.206;4.856;2023-06-26T06:58:33;8.30;;;1.60;;
36547;SDS011;22551;52.206;4.856;2023-06-26T07:03:37;3.13;;;1.40;;
36547;SDS011;22551;52.206;4.856;2023-06-26T07:08:39;4.20;;;1.13;;
36547;SDS011;22551;52.206;4.856;2023-06-26T07:13:42;5.03;;;1.30;;
36547;SDS011;22551;52.206;4.856;2023-06-26T07:18:46;3.50;;;1.40;;
36547;SDS011;22551;52.206;4.856;2023-06-26T07:23:52;3.08;;;1.08;;
36547;SDS011;22551;52.206;4.856;2023-06-26T07:28:55;3.33;;;0.90;;
36547;SDS011;22551;52.206;4.856;2023-06-26T07:33:59;5.10;;;1.40;;
36547;SDS011;22551;52.206;4.856;2023-06-26T07:39:02;5.20;;;0.95;;
36547;SDS011;22551;52.206;4.856;2023-06-26T07:44:04;7.30;;;0.90;;
36547;SDS011;22551;52.206;4.856;2023-06-26T07:49:08;1.13;;;0.85;;
36547;SDS011;22551;52.206;4.856;2023-06-26T07:59:12;7.90;;;1.30;;
36547;SDS011;22551;52.206;4.856;2023-06-26T08:04:17;5.75;;;1.10;;
36547;SDS011;22551;52.206;4.856;2023-06-26T08:09:22;8.68;;;1.02;;
36547;SDS011;22551;52.206;4.856;2023-06-26T08:14:27;8.07;;;1.02;;
36547;SDS011;22551;52.206;4.856;2023-06-26T08:19:32;5.68;;;0.98;;
36547;SDS011;22551;52.206;4.856;2023-06-26T08:29:37;5.57;;;1.20;;
36547;SDS011;22551;52.206;4.856;2023-06-26T08:34:40;9.30;;;0.95;;
36547;SDS011;22551;52.206;4.856;2023-06-26T08:39:43;4.70;;;1.15;;
36547;SDS011;22551;52.206;4.856;2023-06-26T08:44:45;4.47;;;1.05;;
36547;SDS011;22551;52.206;4.856;2023-06-26T08:49:50;2.00;;;1.00;;
36547;SDS011;22551;52.206;4.856;2023-06-26T08:54:59;4.07;;;1.30;;
36547;SDS011;22551;52.206;4.856;2023-06-26T09:00:04;3.58;;;0.73;;
36547;SDS011;22551;52.206;4.856;2023-06-26T09:05:13;3.67;;;0.90;;
36547;SDS011;22551;52.206;4.856;2023-06-26T09:10:15;3.72;;;0.60;;
36547;SDS011;22551;52.206;4.856;2023-06-26T09:15:18;2.25;;;0.98;;
36547;SDS011;22551;52.206;4.856;2023-06-26T09:20:23;2.95;;;1.08;;
36547;SDS011;22551;52.206;4.856;2023-06-26T09:25:29;2.70;;;0.80;;
36547;SDS011;22551;52.206;4.856;2023-06-26T09:30:31;4.88;;;0.85;;
36547;SDS011;22551;52.206;4.856;2023-06-26T09:35:35;1.23;;;0.67;;
36547;SDS011;22551;52.206;4.856;2023-06-26T09:40:38;5.10;;;0.80;;
36547;SDS011;22551;52.206;4.856;2023-06-26T09:45:41;4.13;;;0.90;;
36547;SDS011;22551;52.206;4.856;2023-06-26T09:50:45;2.17;;;0.73;;
36547;SDS011;22551;52.206;4.856;2023-06-26T09:55:47;2.33;;;1.00;;
36547;SDS011;22551;52.206;4.856;2023-06-26T10:00:50;3.90;;;1.55;;
36547;SDS011;22551;52.206;4.856;2023-06-26T10:05:55;7.88;;;1.10;;
36547;SDS011;22551;52.206;4.856;2023-06-26T10:10:58;3.33;;;0.93;;
36547;SDS011;22551;52.206;4.856;2023-06-26T10:16:00;5.72;;;1.25;;
36547;SDS011;22551;52.206;4.856;2023-06-26T10:26:08;5.22;;;0.80;;
36547;SDS011;22551;52.206;4.856;2023-06-26T10:31:12;4.28;;;0.70;;
36547;SDS011;22551;52.206;4.856;2023-06-26T10:36:17;5.78;;;0.90;;
36547;SDS011;22551;52.206;4.856;2023-06-26T10:41:22;2.33;;;0.88;;
36547;SDS011;22551;52.206;4.856;2023-06-26T10:46:26;3.08;;;0.50;;
36547;SDS011;22551;52.206;4.856;2023-06-26T10:51:32;2.25;;;1.00;;
36547;SDS011;22551;52.206;4.856;2023-06-26T10:56:41;2.90;;;1.23;;
36547;SDS011;22551;52.206;4.856;2023-06-26T11:01:46;2.75;;;0.80;;
36547;SDS011;22551;52.206;4.856;2023-06-26T11:07:14;1.58;;;0.52;;
36547;SDS011;22551;52.206;4.856;2023-06-26T11:12:33;4.85;;;1.02;;
36547;SDS011;22551;52.206;4.856;2023-06-26T11:17:40;4.95;;;0.50;;
36547;SDS011;22551;52.206;4.856;2023-06-26T11:22:45;2.92;;;0.70;;
36547;SDS011;22551;52.206;4.856;2023-06-26T11:27:53;0.75;;;0.50;;
36547;SDS011;22551;52.206;4.856;2023-06-26T11:33:02;1.17;;;0.40;;
36547;SDS011;22551;52.206;4.856;2023-06-26T11:38:07;2.67;;;0.70;;
36547;SDS011;22551;52.206;4.856;2023-06-26T11:43:09;5.97;;;1.10;;
36547;SDS011;22551;52.206;4.856;2023-06-26T11:48:12;3.13;;;0.73;;
36547;SDS011;22551;52.206;4.856;2023-06-26T11:53:15;1.67;;;0.50;;
36547;SDS011;22551;52.206;4.856;2023-06-26T11:58:18;3.17;;;0.70;;
36547;SDS011;22551;52.206;4.856;2023-06-26T12:03:21;3.75;;;0.50;;
36547;SDS011;22551;52.206;4.856;2023-06-26T12:08:25;5.43;;;0.50;;
36547;SDS011;22551;52.206;4.856;2023-06-26T12:13:28;3.10;;;0.57;;
36547;SDS011;22551;52.206;4.856;2023-06-26T12:18:33;2.97;;;0.60;;
36547;SDS011;22551;52.206;4.856;2023-06-26T12:23:39;2.55;;;0.55;;
36547;SDS011;22551;52.206;4.856;2023-06-26T12:28:43;1.13;;;0.60;;
36547;SDS011;22551;52.206;4.856;2023-06-26T12:33:47;4.78;;;0.70;;
36547;SDS011;22551;52.206;4.856;2023-06-26T12:38:52;1.73;;;0.73;;
36547;SDS011;22551;52.206;4.856;2023-06-26T12:44:05;3.33;;;0.57;;
36547;SDS011;22551;52.206;4.856;2023-06-26T12:54:35;3.45;;;0.50;;
36547;SDS011;22551;52.206;4.856;2023-06-26T12:59:42;3.20;;;0.80;;
36547;SDS011;22551;52.206;4.856;2023-06-26T13:09:49;4.50;;;1.42;;
36547;SDS011;22551;52.206;4.856;2023-06-26T13:14:52;3.00;;;0.77;;
36547;SDS011;22551;52.206;4.856;2023-06-26T13:19:54;2.47;;;0.60;;
36547;SDS011;22551;52.206;4.856;2023-06-26T13:24:58;2.65;;;0.40;;
36547;SDS011;22551;52.206;4.856;2023-06-26T13:30:01;5.55;;;0.80;;
36547;SDS011;22551;52.206;4.856;2023-06-26T13:35:04;2.95;;;0.60;;
36547;SDS011;22551;52.206;4.856;2023-06-26T13:40:10;2.97;;;0.65;;
36547;SDS011;22551;52.206;4.856;2023-06-26T13:45:14;3.13;;;1.02;;
36547;SDS011;22551;52.206;4.856;2023-06-26T13:50:18;2.63;;;0.80;;
36547;SDS011;22551;52.206;4.856;2023-06-26T13:55:21;1.90;;;0.70;;
36547;SDS011;22551;52.206;4.856;2023-06-26T14:00:24;1.42;;;0.80;;
36547;SDS011;22551;52.206;4.856;2023-06-26T14:05:28;3.58;;;0.57;;
36547;SDS011;22551;52.206;4.856;2023-06-26T14:10:32;4.07;;;0.80;;
36547;SDS011;22551;52.206;4.856;2023-06-26T14:15:35;2.50;;;0.70;;
36547;SDS011;22551;52.206;4.856;2023-06-26T14:20:40;3.28;;;0.80;;
36547;SDS011;22551;52.206;4.856;2023-06-26T14:25:43;1.90;;;1.15;;
36547;SDS011;22551;52.206;4.856;2023-06-26T14:30:46;4.22;;;1.10;;
36547;SDS011;22551;52.206;4.856;2023-06-26T14:35:48;1.98;;;0.90;;
36547;SDS011;22551;52.206;4.856;2023-06-26T14:40:52;5.60;;;0.95;;
36547;SDS011;22551;52.206;4.856;2023-06-26T14:45:54;1.77;;;0.80;;
36547;SDS011;22551;52.206;4.856;2023-06-26T14:50:57;1.75;;;0.65;;
36547;SDS011;22551;52.206;4.856;2023-06-26T14:56:01;0.95;;;0.50;;
36547;SDS011;22551;52.206;4.856;2023-06-26T15:01:05;1.55;;;0.82;;
36547;SDS011;22551;52.206;4.856;2023-06-26T15:06:08;3.67;;;0.98;;
36547;SDS011;22551;52.206;4.856;2023-06-26T15:11:12;2.20;;;0.60;;
36547;SDS011;22551;52.206;4.856;2023-06-26T15:16:15;6.15;;;1.27;;
36547;SDS011;22551;52.206;4.856;2023-06-26T15:21:18;2.38;;;0.60;;
36547;SDS011;22551;52.206;4.856;2023-06-26T15:26:22;2.30;;;0.50;;
36547;SDS011;22551;52.206;4.856;2023-06-26T15:36:26;4.40;;;0.70;;
36547;SDS011;22551;52.206;4.856;2023-06-26T15:41:30;3.22;;;0.90;;
36547;SDS011;22551;52.206;4.856;2023-06-26T15:51:34;3.63;;;0.80;;
36547;SDS011;22551;52.206;4.856;2023-06-26T15:56:39;3.65;;;0.57;;
36547;SDS011;22551;52.206;4.856;2023-06-26T16:06:45;3.25;;;1.15;;
36547;SDS011;22551;52.206;4.856;2023-06-26T16:11:49;9.02;;;2.13;;
36547;SDS011;22551;52.206;4.856;2023-06-26T16:16:54;4.07;;;1.45;;
36547;SDS011;22551;52.206;4.856;2023-06-26T16:21:59;1.38;;;0.90;;
36547;SDS011;22551;52.206;4.856;2023-06-26T16:27:04;5.35;;;0.73;;
36547;SDS011;22551;52.206;4.856;2023-06-26T16:32:07;3.30;;;0.82;;
36547;SDS011;22551;52.206;4.856;2023-06-26T16:37:10;1.88;;;0.68;;
36547;SDS011;22551;52.206;4.856;2023-06-26T16:42:13;2.83;;;0.95;;
36547;SDS011;22551;52.206;4.856;2023-06-26T16:47:19;5.32;;;1.17;;
36547;SDS011;22551;52.206;4.856;2023-06-26T16:52:21;2.80;;;0.73;;
36547;SDS011;22551;52.206;4.856;2023-06-26T16:57:25;3.72;;;0.98;;
36547;SDS011;22551;52.206;4.856;2023-06-26T17:02:27;3.17;;;1.08;;
36547;SDS011;22551;52.206;4.856;2023-06-26T17:07:30;5.60;;;0.95;;
36547;SDS011;22551;52.206;4.856;2023-06-26T17:12:36;3.30;;;0.60;;
36547;SDS011;22551;52.206;4.856;2023-06-26T17:17:40;1.38;;;0.85;;
36547;SDS011;22551;52.206;4.856;2023-06-26T17:22:42;4.68;;;0.75;;
36547;SDS011;22551;52.206;4.856;2023-06-26T17:27:46;3.05;;;0.88;;
36547;SDS011;22551;52.206;4.856;2023-06-26T17:32:48;1.15;;;0.90;;
36547;SDS011;22551;52.206;4.856;2023-06-26T17:37:51;3.20;;;1.08;;
36547;SDS011;22551;52.206;4.856;2023-06-26T17:42:55;3.17;;;1.00;;
36547;SDS011;22551;52.206;4.856;2023-06-26T17:47:59;5.07;;;0.98;;
36547;SDS011;22551;52.206;4.856;2023-06-26T17:53:01;2.07;;;0.63;;
36547;SDS011;22551;52.206;4.856;2023-06-26T17:58:07;4.53;;;1.45;;
36547;SDS011;22551;52.206;4.856;2023-06-26T18:03:10;5.47;;;0.75;;
36547;SDS011;22551;52.206;4.856;2023-06-26T18:08:12;3.65;;;1.00;;
36547;SDS011;22551;52.206;4.856;2023-06-26T18:13:16;4.28;;;1.17;;
36547;SDS011;22551;52.206;4.856;2023-06-26T18:23:20;3.70;;;1.23;;
36547;SDS011;22551;52.206;4.856;2023-06-26T18:28:24;3.97;;;0.98;;
36547;SDS011;22551;52.206;4.856;2023-06-26T18:33:27;5.90;;;1.23;;
36547;SDS011;22551;52.206;4.856;2023-06-26T18:38:29;4.82;;;0.85;;
36547;SDS011;22551;52.206;4.856;2023-06-26T18:43:33;7.97;;;1.20;;
36547;SDS011;22551;52.206;4.856;2023-06-26T18:48:35;3.10;;;1.40;;
36547;SDS011;22551;52.206;4.856;2023-06-26T18:53:38;3.63;;;1.00;;
36547;SDS011;22551;52.206;4.856;2023-06-26T18:58:42;3.58;;;0.77;;
36547;SDS011;22551;52.206;4.856;2023-06-26T19:03:45;5.30;;;1.10;;
36547;SDS011;22551;52.206;4.856;2023-06-26T19:08:48;2.20;;;0.95;;
36547;SDS011;22551;52.206;4.856;2023-06-26T19:13:51;2.92;;;1.25;;
36547;SDS011;22551;52.206;4.856;2023-06-26T19:18:54;5.90;;;2.33;;
36547;SDS011;22551;52.206;4.856;2023-06-26T19:24:00;3.08;;;1.10;;
36547;SDS011;22551;52.206;4.856;2023-06-26T19:29:03;5.03;;;1.75;;
36547;SDS011;22551;52.206;4.856;2023-06-26T19:34:06;8.80;;;1.30;;
36547;SDS011;22551;52.206;4.856;2023-06-26T19:39:08;4.53;;;1.40;;
36547;SDS011;22551;52.206;4.856;2023-06-26T19:44:12;4.15;;;1.63;;
36547;SDS011;22551;52.206;4.856;2023-06-26T19:49:14;3.30;;;1.13;;
36547;SDS011;22551;52.206;4.856;2023-06-26T19:54:16;6.18;;;1.65;;
36547;SDS011;22551;52.206;4.856;2023-06-26T19:59:20;2.85;;;1.25;;
36547;SDS011;22551;52.206;4.856;2023-06-26T20:04:22;5.35;;;1.35;;
36547;SDS011;22551;52.206;4.856;2023-06-26T20:09:27;4.80;;;1.58;;
36547;SDS011;22551;52.206;4.856;2023-06-26T20:14:32;5.32;;;1.73;;
36547;SDS011;22551;52.206;4.856;2023-06-26T20:19:35;8.50;;;1.40;;
36547;SDS011;22551;52.206;4.856;2023-06-26T20:24:38;6.82;;;2.50;;
36547;SDS011;22551;52.206;4.856;2023-06-26T20:29:42;3.72;;;1.98;;
36547;SDS011;22551;52.206;4.856;2023-06-26T20:34:44;8.82;;;2.95;;
36547;SDS011;22551;52.206;4.856;2023-06-26T20:39:47;7.63;;;1.52;;
36547;SDS011;22551;52.206;4.856;2023-06-26T20:44:52;7.22;;;2.03;;
36547;SDS011;22551;52.206;4.856;2023-06-26T20:49:57;5.22;;;2.08;;
36547;SDS011;22551;52.206;4.856;2023-06-26T20:55:00;7.28;;;2.00;;
36547;SDS011;22551;52.206;4.856;2023-06-26T21:00:05;10.13;;;2.33;;
36547;SDS011;22551;52.206;4.856;2023-06-26T21:05:09;7.68;;;2.00;;
36547;SDS011;22551;52.206;4.856;2023-06-26T21:10:11;8.82;;;1.88;;
36547;SDS011;22551;52.206;4.856;2023-06-26T21:15:15;5.45;;;1.50;;
36547;SDS011;22551;52.206;4.856;2023-06-26T21:20:18;3.03;;;2.17;;
36547;SDS011;22551;52.206;4.856;2023-06-26T21:25:20;5.13;;;1.85;;
36547;SDS011;22551;52.206;4.856;2023-06-26T21:30:24;6.65;;;2.25;;
36547;SDS011;22551;52.206;4.856;2023-06-26T21:35:27;7.40;;;2.95;;
36547;SDS011;22551;52.206;4.856;2023-06-26T21:40:29;9.57;;;2.53;;
36547;SDS011;22551;52.206;4.856;2023-06-26T21:45:33;9.65;;;3.30;;
36547;SDS011;22551;52.206;4.856;2023-06-26T21:50:36;7.72;;;2.80;;
36547;SDS011;22551;52.206;4.856;2023-06-26T21:55:39;12.10;;;3.92;;
36547;SDS011;22551;52.206;4.856;2023-06-26T22:00:43;10.90;;;3.40;;
36547;SDS011;22551;52.206;4.856;2023-06-26T22:05:46;9.73;;;3.35;;
36547;SDS011;22551;52.206;4.856;2023-06-26T22:10:48;5.60;;;3.30;;
36547;SDS011;22551;52.206;4.856;2023-06-26T22:15:52;11.30;;;4.18;;
36547;SDS011;22551;52.206;4.856;2023-06-26T22:20:54;12.20;;;3.03;;
36547;SDS011;22551;52.206;4.856;2023-06-26T22:25:57;8.50;;;3.55;;
36547;SDS011;22551;52.206;4.856;2023-06-26T22:31:01;6.70;;;3.33;;
36547;SDS011;22551;52.206;4.856;2023-06-26T22:36:04;9.57;;;3.40;;
36547;SDS011;22551;52.206;4.856;2023-06-26T22:41:07;9.23;;;3.00;;
36547;SDS011;22551;52.206;4.856;2023-06-26T22:46:10;14.55;;;3.45;;
36547;SDS011;22551;52.206;4.856;2023-06-26T22:51:13;4.97;;;2.80;;
36547;SDS011;22551;52.206;4.856;2023-06-26T22:56:15;6.82;;;3.40;;
36547;SDS011;22551;52.206;4.856;2023-06-26T23:01:19;9.43;;;3.22;;
36547;SDS011;22551;52.206;4.856;2023-06-26T23:06:21;9.20;;;3.43;;
36547;SDS011;22551;52.206;4.856;2023-06-26T23:11:23;9.00;;;3.45;;
36547;SDS011;22551;52.206;4.856;2023-06-26T23:16:28;13.48;;;3.33;;
36547;SDS011;22551;52.206;4.856;2023-06-26T23:21:31;7.30;;;3.90;;
36547;SDS011;22551;52.206;4.856;2023-06-26T23:26:33;10.73;;;3.83;;
36547;SDS011;22551;52.206;4.856;2023-06-26T23:31:39;12.77;;;4.05;;
36547;SDS011;22551;52.206;4.856;2023-06-26T23:36:43;8.40;;;4.30;;
36547;SDS011;22551;52.206;4.856;2023-06-26T23:41:49;12.73;;;4.57;;
36547;SDS011;22551;52.206;4.856;2023-06-26T23:46:53;8.50;;;4.60;;
36547;SDS011;22551;52.206;4.856;2023-06-26T23:51:56;10.07;;;4.70;;
36547;SDS011;22551;52.206;4.856;2023-06-26T23:56:58;9.60;;;4.32;;
